Time;durP1;ratioP1;P1;durP2;ratioP2;P2;SDS_P1;SDS_P2;PMS_P1;PMS_P2;Temp;Humidity;BMP_temperature;BMP_pressure;BME280_temperature;BME280_humidity;BME280_pressure;Samples;Min_cycle;Max_cycle;Signal;HPM_P1;HPM_P2
2024/02/09 00:00:08;;;;;;;55.40;36.75;;;;;;;;;;5033282;28;20444;-68
2024/02/09 00:02:43;;;;;;;9.05;8.15;;;;;;;;;;5016945;28;20079;-69
2024/02/09 00:05:13;;;;;;;4.97;4.47;;;;;;;;;;5033338;28;20041;-69
2024/02/09 00:07:39;;;;;;;5.70;5.15;;;;;;;;;;5033553;28;20116;-69
2024/02/09 00:10:05;;;;;;;6.05;5.55;;;;;;;;;;5033019;28;20104;-69
2024/02/09 00:12:31;;;;;;;6.05;5.38;;;;;;;;;;5033103;28;20025;-69
2024/02/09 00:14:59;;;;;;;5.97;5.38;;;;;;;;;;5033125;28;20061;-68
2024/02/09 00:17:24;;;;;;;10.65;9.55;;;;;;;;;;5015253;28;20369;-68
2024/02/09 00:19:50;;;;;;;6.03;5.40;;;;;;;;;;5046396;28;20060;-69
2024/02/09 00:22:15;;;;;;;9.50;7.65;;;;;;;;;;5053178;28;20028;-70
2024/02/09 00:24:42;;;;;;;7.20;5.72;;;;;;;;;;5054087;28;20102;-70
2024/02/09 00:27:08;;;;;;;6.97;6.18;;;;;;;;;;5054304;28;20554;-70
2024/02/09 00:29:33;;;;;;;11.15;9.68;;;;;;;;;;5053858;28;20108;-69
2024/02/09 00:31:58;;;;;;;9.27;6.18;;;;;;;;;;5053650;28;20382;-68
2024/02/09 00:34:24;;;;;;;7.47;6.28;;;;;;;;;;5053924;28;20028;-69
2024/02/09 00:36:52;;;;;;;8.73;6.57;;;;;;;;;;5053466;28;20163;-69
2024/02/09 00:39:17;;;;;;;6.78;6.05;;;;;;;;;;5053868;28;20406;-68
2024/02/09 00:41:43;;;;;;;7.97;6.40;;;;;;;;;;5053844;28;20035;-68
2024/02/09 00:44:08;;;;;;;9.55;6.72;;;;;;;;;;5053823;28;20029;-69
2024/02/09 00:46:39;;;;;;;8.57;6.40;;;;;;;;;;5053485;28;20033;-69
2024/02/09 00:49:07;;;;;;;7.07;5.90;;;;;;;;;;5053797;28;20108;-69
2024/02/09 00:51:33;;;;;;;7.80;6.13;;;;;;;;;;5053763;28;20056;-67
2024/02/09 00:54:00;;;;;;;9.27;6.30;;;;;;;;;;5053769;28;20029;-68
2024/02/09 00:56:26;;;;;;;9.30;6.57;;;;;;;;;;5053718;28;20031;-68
2024/02/09 00:58:54;;;;;;;8.95;6.78;;;;;;;;;;5053410;28;20028;-68
2024/02/09 01:01:20;;;;;;;9.75;7.78;;;;;;;;;;5053855;28;20033;-67
2024/02/09 01:03:45;;;;;;;8.82;6.40;;;;;;;;;;5053650;28;20032;-68
2024/02/09 01:06:10;;;;;;;8.52;6.78;;;;;;;;;;5036161;28;20071;-69
2024/02/09 01:08:36;;;;;;;8.65;6.35;;;;;;;;;;5053870;28;20021;-68
2024/02/09 01:11:01;;;;;;;7.97;6.90;;;;;;;;;;5053247;28;20026;-68
2024/02/09 02:46:13;;;;;;;3.08;2.88;;;;;;;;;;5055524;28;20029;-69
2024/02/09 03:05:14;;;;;;;4.32;3.95;;;;;;;;;;5055389;28;20037;-69
2024/02/09 03:07:41;;;;;;;5.18;4.68;;;;;;;;;;5055445;28;20053;-68
2024/02/09 03:10:07;;;;;;;5.13;4.72;;;;;;;;;;5055319;28;20024;-68
2024/02/09 03:12:33;;;;;;;4.80;4.43;;;;;;;;;;5055367;28;20032;-67
2024/02/09 03:14:59;;;;;;;5.43;4.93;;;;;;;;;;5055575;28;20143;-67
2024/02/09 03:17:26;;;;;;;5.93;4.93;;;;;;;;;;5037285;28;20119;-67
2024/02/09 03:19:51;;;;;;;6.28;5.50;;;;;;;;;;5054857;28;20060;-68
2024/02/09 03:22:17;;;;;;;5.80;4.95;;;;;;;;;;5054818;28;20446;-69
2024/02/09 03:24:42;;;;;;;5.57;5.07;;;;;;;;;;5055093;28;20375;-69
2024/02/09 03:27:08;;;;;;;5.50;5.00;;;;;;;;;;5055085;28;20047;-69
2024/02/09 03:29:33;;;;;;;4.80;4.40;;;;;;;;;;5055208;28;20022;-68
2024/02/09 03:31:59;;;;;;;4.80;4.40;;;;;;;;;;5054908;28;20115;-69
2024/02/09 03:34:25;;;;;;;5.28;4.65;;;;;;;;;;5054895;28;20033;-69
2024/02/09 03:36:54;;;;;;;4.60;4.20;;;;;;;;;;5054699;28;20036;-69
2024/02/09 03:39:19;;;;;;;4.35;4.05;;;;;;;;;;5054831;28;20029;-69
2024/02/09 03:41:45;;;;;;;4.78;4.38;;;;;;;;;;5054478;28;20074;-69
2024/02/09 03:44:10;;;;;;;5.03;4.63;;;;;;;;;;5054474;28;20032;-70
2024/02/09 03:46:36;;;;;;;4.72;4.32;;;;;;;;;;5054362;28;20013;-69
2024/02/09 03:49:01;;;;;;;5.05;4.53;;;;;;;;;;5054653;28;20125;-69
2024/02/09 03:51:27;;;;;;;5.68;4.82;;;;;;;;;;5053080;28;20033;-70
2024/02/09 03:53:52;;;;;;;5.20;4.78;;;;;;;;;;5054485;28;20036;-72
2024/02/09 03:56:18;;;;;;;5.60;4.55;;;;;;;;;;5037208;28;20028;-70
2024/02/09 03:58:45;;;;;;;4.47;4.13;;;;;;;;;;5054465;28;20359;-70
2024/02/09 04:01:11;;;;;;;4.22;3.92;;;;;;;;;;5054155;28;20041;-70
2024/02/09 04:03:36;;;;;;;4.97;4.30;;;;;;;;;;5054695;28;20033;-70
2024/02/09 04:06:02;;;;;;;4.30;4.00;;;;;;;;;;5054310;28;20055;-69
2024/02/09 04:08:28;;;;;;;4.45;4.05;;;;;;;;;;5054296;28;20020;-70
2024/02/09 04:10:53;;;;;;;4.18;3.78;;;;;;;;;;5053263;28;20501;-68
2024/02/09 04:13:18;;;;;;;6.28;4.80;;;;;;;;;;5053935;28;20515;-68
2024/02/09 04:15:44;;;;;;;6.72;6.00;;;;;;;;;;5054176;28;20025;-69
2024/02/09 04:18:09;;;;;;;8.05;7.25;;;;;;;;;;5053876;28;20025;-69
2024/02/09 04:20:35;;;;;;;4.22;3.92;;;;;;;;;;5053683;28;20119;-69
2024/02/09 04:23:00;;;;;;;6.30;4.93;;;;;;;;;;5053984;28;20040;-69
2024/02/09 04:25:26;;;;;;;4.53;3.78;;;;;;;;;;5053758;28;20029;-69
2024/02/09 04:27:53;;;;;;;4.38;3.97;;;;;;;;;;5054021;28;20043;-68
2024/02/09 04:30:21;;;;;;;4.20;3.85;;;;;;;;;;5053876;28;20049;-69
2024/02/09 04:32:47;;;;;;;3.50;3.20;;;;;;;;;;5053910;28;20049;-69
2024/02/09 04:35:14;;;;;;;3.90;3.60;;;;;;;;;;5054028;28;20061;-70
2024/02/09 04:37:39;;;;;;;4.43;4.03;;;;;;;;;;5054231;28;20023;-69
2024/02/09 04:40:05;;;;;;;4.63;4.22;;;;;;;;;;5036261;28;20104;-67
2024/02/09 04:42:31;;;;;;;3.70;3.40;;;;;;;;;;5036185;28;20025;-68
2024/02/09 04:44:56;;;;;;;4.22;3.90;;;;;;;;;;5053927;28;20029;-67
2024/02/09 04:47:21;;;;;;;4.25;3.83;;;;;;;;;;5054092;28;20033;-66
2024/02/09 04:49:49;;;;;;;3.80;3.60;;;;;;;;;;5054026;28;20100;-66
2024/02/09 04:52:15;;;;;;;3.65;3.35;;;;;;;;;;5052546;28;20459;-66
2024/02/09 04:54:40;;;;;;;3.35;3.10;;;;;;;;;;5052765;28;20017;-68
2024/02/09 04:57:07;;;;;;;4.80;4.40;;;;;;;;;;5053556;28;20024;-69
2024/02/09 04:59:33;;;;;;;6.35;5.75;;;;;;;;;;5052501;28;20487;-67
2024/02/09 05:01:58;;;;;;;5.15;4.65;;;;;;;;;;5052232;28;20031;-67
2024/02/09 05:04:24;;;;;;;5.10;4.70;;;;;;;;;;5052427;28;20647;-65
2024/02/09 05:06:50;;;;;;;5.20;4.68;;;;;;;;;;5052503;28;20025;-65
2024/02/09 05:09:18;;;;;;;5.75;4.78;;;;;;;;;;5052300;28;20083;-65
2024/02/09 05:11:43;;;;;;;7.00;4.50;;;;;;;;;;5052310;28;20029;-65
2024/02/09 05:14:09;;;;;;;4.32;3.90;;;;;;;;;;5053839;28;20029;-66
2024/02/09 05:16:41;;;;;;;4.40;4.00;;;;;;;;;;5053215;28;20040;-66
2024/02/09 05:19:10;;;;;;;4.18;3.88;;;;;;;;;;5053560;28;20040;-64
2024/02/09 05:21:35;;;;;;;5.53;5.03;;;;;;;;;;5053716;28;20033;-64
2024/02/09 05:24:02;;;;;;;4.75;4.30;;;;;;;;;;5056866;28;20032;-64
2024/02/09 05:26:27;;;;;;;5.50;4.97;;;;;;;;;;5057649;28;20051;-65
2024/02/09 05:28:52;;;;;;;5.25;4.75;;;;;;;;;;5057758;28;20451;-65
2024/02/09 05:31:18;;;;;;;4.70;4.30;;;;;;;;;;5057579;28;20352;-65
2024/02/09 05:33:45;;;;;;;4.20;3.90;;;;;;;;;;5057227;28;20024;-64
2024/02/09 05:36:20;;;;;;;5.53;4.90;;;;;;;;;;5057313;28;20037;-64
2024/02/09 05:38:46;;;;;;;6.20;5.00;;;;;;;;;;5057437;28;20048;-65
2024/02/09 05:41:11;;;;;;;5.55;5.13;;;;;;;;;;5057135;28;20475;-65
2024/02/09 05:43:37;;;;;;;6.28;5.68;;;;;;;;;;5039619;28;20366;-64
2024/02/09 05:46:02;;;;;;;8.02;6.00;;;;;;;;;;5057226;28;20045;-65
2024/02/09 05:48:28;;;;;;;6.65;6.05;;;;;;;;;;5057006;28;20033;-65
2024/02/09 05:50:53;;;;;;;6.70;6.05;;;;;;;;;;5056569;28;20425;-64
2024/02/09 05:53:19;;;;;;;6.47;5.85;;;;;;;;;;5056658;28;20039;-64
2024/02/09 05:55:48;;;;;;;6.53;5.78;;;;;;;;;;5056796;28;20033;-64
2024/02/09 05:58:13;;;;;;;6.55;5.28;;;;;;;;;;5056814;28;20025;-64
2024/02/09 06:00:38;;;;;;;6.47;5.78;;;;;;;;;;5056685;28;20167;-65
2024/02/09 06:03:07;;;;;;;10.63;7.00;;;;;;;;;;5056596;28;20020;-64
2024/02/09 06:05:33;;;;;;;8.38;6.50;;;;;;;;;;5056543;28;20037;-64
2024/02/09 06:08:00;;;;;;;6.82;5.88;;;;;;;;;;5055831;28;20036;-64
2024/02/09 06:10:26;;;;;;;8.85;7.05;;;;;;;;;;5056314;28;20033;-64
2024/02/09 06:12:52;;;;;;;6.90;6.20;;;;;;;;;;5056769;28;20029;-64
2024/02/09 06:15:17;;;;;;;6.90;5.82;;;;;;;;;;5056579;28;20033;-64
2024/02/09 06:17:43;;;;;;;7.28;6.57;;;;;;;;;;5056611;28;20021;-64
2024/02/09 06:20:08;;;;;;;7.28;6.45;;;;;;;;;;5056332;28;20079;-64
2024/02/09 06:22:34;;;;;;;8.45;7.65;;;;;;;;;;5056509;28;20059;-64
2024/02/09 06:25:00;;;;;;;7.32;5.85;;;;;;;;;;5056138;28;20261;-64
2024/02/09 06:27:29;;;;;;;6.38;5.78;;;;;;;;;;5055965;28;20474;-64
2024/02/09 06:29:54;;;;;;;6.22;5.68;;;;;;;;;;5056136;28;20029;-64
2024/02/09 06:32:22;;;;;;;7.70;7.00;;;;;;;;;;5056060;28;20079;-64
2024/02/09 06:34:48;;;;;;;9.98;8.27;;;;;;;;;;5054515;28;20053;-64
2024/02/09 06:37:17;;;;;;;6.97;6.20;;;;;;;;;;5055122;28;20474;-64
2024/02/09 06:39:42;;;;;;;6.95;6.35;;;;;;;;;;5055368;28;20175;-64
2024/02/09 06:42:07;;;;;;;8.18;7.30;;;;;;;;;;5052879;28;20121;-64
2024/02/09 06:44:34;;;;;;;6.68;5.88;;;;;;;;;;5054151;28;20471;-64
2024/02/09 06:47:00;;;;;;;8.40;6.43;;;;;;;;;;5054053;28;20043;-64
2024/02/09 06:49:28;;;;;;;8.82;7.45;;;;;;;;;;5053787;28;20037;-64
2024/02/09 06:51:53;;;;;;;32.63;26.25;;;;;;;;;;5053993;28;20074;-64
2024/02/09 06:54:19;;;;;;;6.88;6.00;;;;;;;;;;5053939;28;20037;-64
2024/02/09 06:56:44;;;;;;;9.02;8.10;;;;;;;;;;5055011;28;20036;-64
2024/02/09 06:59:10;;;;;;;21.10;14.18;;;;;;;;;;5055399;28;20506;-64
2024/02/09 07:01:39;;;;;;;37.75;23.42;;;;;;;;;;5055290;28;20046;-64
2024/02/09 07:04:09;;;;;;;9.27;7.10;;;;;;;;;;5055251;28;20025;-64
2024/02/09 07:06:35;;;;;;;25.42;22.73;;;;;;;;;;5055243;28;20459;-64
2024/02/09 07:09:00;;;;;;;27.15;22.67;;;;;;;;;;5055113;28;20025;-64
2024/02/09 07:11:25;;;;;;;43.75;37.97;;;;;;;;;;5055686;28;20057;-64
2024/02/09 07:13:51;;;;;;;29.23;26.13;;;;;;;;;;5055370;28;20056;-64
2024/02/09 07:16:17;;;;;;;18.63;16.70;;;;;;;;;;5055022;28;20013;-64
2024/02/09 07:18:43;;;;;;;55.60;47.38;;;;;;;;;;5079160;22;20055;-64
2024/02/09 07:21:14;;;;;;;30.63;27.42;;;;;;;;;;5131061;22;20138;-63
2024/02/09 07:23:40;;;;;;;28.00;25.20;;;;;;;;;;5134165;22;20044;-55
2024/02/09 07:26:09;;;;;;;15.52;14.13;;;;;;;;;;5144381;22;20045;31
2024/02/09 07:28:34;;;;;;;10.70;9.57;;;;;;;;;;5100581;22;20109;-56
2024/02/09 07:31:00;;;;;;;7.57;6.75;;;;;;;;;;5121951;22;20055;-64
2024/02/09 07:33:25;;;;;;;9.40;8.50;;;;;;;;;;5115583;28;20505;-64
2024/02/09 07:35:51;;;;;;;8.00;7.20;;;;;;;;;;5096968;28;20032;-64
2024/02/09 07:38:16;;;;;;;8.10;6.85;;;;;;;;;;5115183;28;20063;-65
2024/02/09 07:40:42;;;;;;;6.70;5.97;;;;;;;;;;5096866;28;20026;-64
2024/02/09 07:43:07;;;;;;;7.00;6.30;;;;;;;;;;5115123;28;20028;-64
2024/02/09 07:45:35;;;;;;;11.43;7.15;;;;;;;;;;5114917;28;20031;-64
2024/02/09 07:48:01;;;;;;;9.10;6.35;;;;;;;;;;5114767;28;20034;-64
2024/02/09 07:50:26;;;;;;;8.38;6.40;;;;;;;;;;5114946;28;20032;-64
2024/02/09 07:52:52;;;;;;;10.32;7.47;;;;;;;;;;5115497;28;20028;-64
2024/02/09 07:55:21;;;;;;;10.50;7.93;;;;;;;;;;5114891;28;20028;-64
2024/02/09 07:57:50;;;;;;;11.52;7.68;;;;;;;;;;5115418;28;20036;-64
2024/02/09 08:00:18;;;;;;;13.63;12.23;;;;;;;;;;5115104;28;20522;-64
2024/02/09 08:02:44;;;;;;;35.60;25.77;;;;;;;;;;5114712;28;20038;-64
2024/02/09 08:05:17;;;;;;;10.18;9.15;;;;;;;;;;5114932;28;20032;-64
2024/02/09 08:07:43;;;;;;;49.45;36.90;;;;;;;;;;5115231;28;20027;-64
2024/02/09 08:10:10;;;;;;;57.83;33.13;;;;;;;;;;5114819;28;20036;-64
2024/02/09 08:12:35;;;;;;;64.40;36.90;;;;;;;;;;5115136;28;20043;-64
2024/02/09 08:15:00;;;;;;;56.67;31.92;;;;;;;;;;5114520;28;20024;-64
2024/02/09 08:17:26;;;;;;;28.30;18.08;;;;;;;;;;5114556;28;20520;-62
2024/02/09 08:19:52;;;;;;;27.92;18.17;;;;;;;;;;5114484;28;20039;-65
2024/02/09 08:22:22;;;;;;;58.47;34.63;;;;;;;;;;5114970;28;20034;-65
2024/02/09 08:24:47;;;;;;;16.20;11.80;;;;;;;;;;5114439;28;20035;-65
2024/02/09 08:27:13;;;;;;;18.45;12.18;;;;;;;;;;5114403;28;20027;-65
2024/02/09 08:29:38;;;;;;;16.95;11.80;;;;;;;;;;5114100;28;20614;-65
2024/02/09 08:32:04;;;;;;;9.13;7.68;;;;;;;;;;5096079;28;20015;-65
2024/02/09 08:34:29;;;;;;;12.05;9.20;;;;;;;;;;5114584;28;20377;-64
2024/02/09 08:36:55;;;;;;;52.45;26.73;;;;;;;;;;5114244;28;20377;-64
2024/02/09 08:39:20;;;;;;;32.67;18.70;;;;;;;;;;5114208;28;20043;-65
2024/02/09 08:41:46;;;;;;;46.28;22.73;;;;;;;;;;5114148;28;20034;-65
2024/02/09 08:44:11;;;;;;;27.73;16.17;;;;;;;;;;5114191;28;20032;-64
2024/02/09 08:46:37;;;;;;;55.20;24.75;;;;;;;;;;5114123;28;20457;-64
2024/02/09 08:49:02;;;;;;;27.45;15.90;;;;;;;;;;5114618;28;20030;-65
2024/02/09 08:51:27;;;;;;;54.50;25.88;;;;;;;;;;5114385;28;20038;-64
2024/02/09 08:53:53;;;;;;;115.75;47.92;;;;;;;;;;5114053;28;20073;-65
2024/02/09 08:56:19;;;;;;;49.85;24.08;;;;;;;;;;5114028;28;20479;-65
2024/02/09 08:58:46;;;;;;;64.97;30.27;;;;;;;;;;5117660;28;20020;-65
2024/02/09 09:01:11;;;;;;;38.40;22.98;;;;;;;;;;5100069;28;20040;-65
2024/02/09 09:03:36;;;;;;;22.88;15.93;;;;;;;;;;5118234;28;20126;-65
2024/02/09 09:06:03;;;;;;;79.68;36.25;;;;;;;;;;5099967;28;20059;-65
2024/02/09 09:08:28;;;;;;;74.95;33.33;;;;;;;;;;5118407;28;20525;-64
2024/02/09 09:10:54;;;;;;;81.82;38.80;;;;;;;;;;5118054;28;20108;-64
2024/02/09 09:13:19;;;;;;;125.47;60.03;;;;;;;;;;5118001;28;20023;-64
2024/02/09 09:15:44;;;;;;;111.60;56.42;;;;;;;;;;5100455;28;20031;-64
2024/02/09 09:18:10;;;;;;;43.47;25.52;;;;;;;;;;5118486;28;20024;-64
2024/02/09 09:20:36;;;;;;;32.85;20.30;;;;;;;;;;5100098;28;20057;-64
2024/02/09 09:23:02;;;;;;;24.42;16.08;;;;;;;;;;5118061;28;20023;-65
2024/02/09 09:25:30;;;;;;;28.98;17.55;;;;;;;;;;5118617;28;20035;-64
2024/02/09 09:27:57;;;;;;;34.40;19.65;;;;;;;;;;5117757;28;20035;-65
2024/02/09 09:30:22;;;;;;;28.00;18.10;;;;;;;;;;5117541;28;20124;-65
2024/02/09 09:32:48;;;;;;;36.85;20.80;;;;;;;;;;5118214;28;20039;-64
2024/02/09 09:35:14;;;;;;;35.25;22.20;;;;;;;;;;5117890;28;20023;-64
2024/02/09 09:37:40;;;;;;;30.58;17.92;;;;;;;;;;5117849;28;20423;-64
2024/02/09 09:40:08;;;;;;;40.10;23.42;;;;;;;;;;5117806;28;20024;-64
2024/02/09 09:42:34;;;;;;;22.48;14.85;;;;;;;;;;5118084;28;20031;-65
2024/02/09 09:44:59;;;;;;;19.17;13.30;;;;;;;;;;5099178;28;20028;-64
2024/02/09 09:47:25;;;;;;;28.95;17.35;;;;;;;;;;5117720;28;20038;-65
2024/02/09 09:49:51;;;;;;;26.25;15.90;;;;;;;;;;5117539;28;20440;-64
2024/02/09 09:52:30;;;;;;;29.63;20.13;;;;;;;;;;5117325;28;20063;-65
2024/02/09 09:54:58;;;;;;;19.17;12.50;;;;;;;;;;5117530;28;20031;-65
2024/02/09 09:57:23;;;;;;;20.42;16.08;;;;;;;;;;5117520;28;20047;-65
2024/02/09 09:59:50;;;;;;;115.93;53.28;;;;;;;;;;5117147;28;20481;-65
2024/02/09 10:02:15;;;;;;;61.88;33.00;;;;;;;;;;5099521;28;20043;-65
2024/02/09 10:04:41;;;;;;;117.32;58.38;;;;;;;;;;5117291;28;20015;-64
2024/02/09 10:07:08;;;;;;;60.80;36.78;;;;;;;;;;5117005;28;20063;-65
2024/02/09 10:09:33;;;;;;;62.83;37.22;;;;;;;;;;5115796;28;20031;-64
2024/02/09 10:11:59;;;;;;;19.33;12.60;;;;;;;;;;5117500;28;20110;-64
2024/02/09 10:14:26;;;;;;;19.52;12.23;;;;;;;;;;5116939;28;20024;-65
2024/02/09 10:16:52;;;;;;;33.95;20.38;;;;;;;;;;5117124;28;20028;-64
2024/02/09 10:19:17;;;;;;;18.65;12.13;;;;;;;;;;5117075;28;20047;-65
2024/02/09 10:21:42;;;;;;;22.40;12.50;;;;;;;;;;5098607;28;20519;-64
2024/02/09 10:24:10;;;;;;;24.45;14.90;;;;;;;;;;5117264;28;20028;-64
2024/02/09 10:26:38;;;;;;;28.30;16.08;;;;;;;;;;5116643;28;20457;-64
2024/02/09 10:29:04;;;;;;;35.10;19.40;;;;;;;;;;5116491;28;20494;-65
2024/02/09 10:31:31;;;;;;;34.60;23.58;;;;;;;;;;5116409;28;20039;-64
2024/02/09 10:33:56;;;;;;;24.75;16.70;;;;;;;;;;5116525;28;20366;-65
2024/02/09 10:36:23;;;;;;;24.35;15.50;;;;;;;;;;5116746;28;20035;-65
2024/02/09 10:38:48;;;;;;;36.65;23.27;;;;;;;;;;5116443;28;20035;-65
2024/02/09 10:41:16;;;;;;;30.17;21.77;;;;;;;;;;5116951;28;20028;-65
2024/02/09 10:43:41;;;;;;;22.92;14.95;;;;;;;;;;5116355;28;20405;-65
2024/02/09 10:46:07;;;;;;;22.20;12.60;;;;;;;;;;5116279;28;20039;-65
2024/02/09 10:48:42;;;;;;;23.45;14.52;;;;;;;;;;5116233;28;20442;-65
2024/02/09 10:51:09;;;;;;;41.90;23.60;;;;;;;;;;5098401;28;20028;-65
2024/02/09 10:53:35;;;;;;;42.03;27.63;;;;;;;;;;5116109;28;20053;-64
2024/02/09 10:56:05;;;;;;;22.55;12.63;;;;;;;;;;5116386;28;20011;-65
2024/02/09 10:58:34;;;;;;;14.50;9.63;;;;;;;;;;5097758;28;20030;-65
2024/02/09 11:01:01;;;;;;;41.00;27.27;;;;;;;;;;5116258;28;20035;-65
2024/02/09 11:03:27;;;;;;;32.70;19.92;;;;;;;;;;5097769;28;20437;-65
2024/02/09 11:05:53;;;;;;;24.80;17.63;;;;;;;;;;5115894;28;20059;-65
2024/02/09 11:08:20;;;;;;;15.27;9.50;;;;;;;;;;5115842;28;20106;-65
2024/02/09 11:10:55;;;;;;;16.67;10.55;;;;;;;;;;5116027;28;20035;-65
2024/02/09 11:13:23;;;;;;;15.95;9.68;;;;;;;;;;5116026;28;20019;-65
2024/02/09 11:15:56;;;;;;;13.02;7.82;;;;;;;;;;5097772;28;20377;-65
2024/02/09 11:18:21;;;;;;;14.52;7.75;;;;;;;;;;5115643;28;20037;-65
2024/02/09 11:20:46;;;;;;;23.02;16.88;;;;;;;;;;5097525;28;20424;-65
2024/02/09 11:23:12;;;;;;;21.42;13.60;;;;;;;;;;5115538;28;20065;-65
2024/02/09 11:25:37;;;;;;;17.92;11.00;;;;;;;;;;5097215;28;20073;-65
2024/02/09 11:28:06;;;;;;;18.65;10.68;;;;;;;;;;5116005;28;20055;-65
2024/02/09 11:30:32;;;;;;;16.88;9.48;;;;;;;;;;5115426;28;20047;-65
2024/02/09 11:32:58;;;;;;;19.45;10.57;;;;;;;;;;5097468;28;20032;-65
2024/02/09 11:35:27;;;;;;;17.92;10.13;;;;;;;;;;5115327;28;20065;-65
2024/02/09 11:37:53;;;;;;;16.98;10.20;;;;;;;;;;5115566;28;20028;-65
2024/02/09 11:40:19;;;;;;;21.58;9.77;;;;;;;;;;5115189;28;20028;-65
2024/02/09 11:42:44;;;;;;;16.30;8.98;;;;;;;;;;5115161;28;20019;-65
2024/02/09 11:45:10;;;;;;;14.45;8.48;;;;;;;;;;5115114;28;20465;-65
2024/02/09 11:47:37;;;;;;;26.75;11.80;;;;;;;;;;5096851;28;20059;-65
2024/02/09 11:50:02;;;;;;;28.33;12.27;;;;;;;;;;5114975;28;20118;-65
2024/02/09 11:52:28;;;;;;;25.50;11.93;;;;;;;;;;5115269;28;20054;-65
2024/02/09 11:54:53;;;;;;;21.77;11.25;;;;;;;;;;5115189;28;20030;-65
2024/02/09 11:57:18;;;;;;;38.00;17.17;;;;;;;;;;5114906;28;20433;-65
2024/02/09 11:59:45;;;;;;;32.47;16.10;;;;;;;;;;5115349;28;20031;-65
2024/02/09 12:02:10;;;;;;;35.03;18.77;;;;;;;;;;5114799;28;20389;-65
2024/02/09 12:04:36;;;;;;;35.88;18.55;;;;;;;;;;5114750;28;20028;-65
2024/02/09 12:07:02;;;;;;;32.22;18.77;;;;;;;;;;5115004;28;20031;-65
2024/02/09 12:09:29;;;;;;;29.85;17.10;;;;;;;;;;5114624;28;20031;-65
2024/02/09 12:11:55;;;;;;;27.25;17.45;;;;;;;;;;5114957;28;20020;-65
2024/02/09 12:14:20;;;;;;;30.30;16.95;;;;;;;;;;5114867;28;20347;-65
2024/02/09 12:16:45;;;;;;;25.13;13.77;;;;;;;;;;5114851;28;20102;-65
2024/02/09 12:19:12;;;;;;;24.23;13.40;;;;;;;;;;5114506;28;20030;-65
2024/02/09 12:21:38;;;;;;;22.38;11.48;;;;;;;;;;5096242;28;20051;-65
2024/02/09 12:24:04;;;;;;;18.98;8.75;;;;;;;;;;5114456;28;20059;-65
2024/02/09 12:26:30;;;;;;;15.02;8.30;;;;;;;;;;5114684;28;20035;-65
2024/02/09 12:28:55;;;;;;;15.80;7.85;;;;;;;;;;5114953;28;20036;-65
2024/02/09 12:31:21;;;;;;;17.08;8.43;;;;;;;;;;5113995;28;20071;-65
2024/02/09 12:33:47;;;;;;;17.92;8.40;;;;;;;;;;5113832;28;20496;-64
2024/02/09 12:36:13;;;;;;;19.65;9.73;;;;;;;;;;5114606;28;20056;-64
2024/02/09 12:38:40;;;;;;;20.85;11.85;;;;;;;;;;5114557;28;20019;-65
2024/02/09 12:41:09;;;;;;;25.25;11.68;;;;;;;;;;5114256;28;20099;-65
2024/02/09 12:43:35;;;;;;;21.40;11.82;;;;;;;;;;5114752;28;20354;-65
2024/02/09 12:46:00;;;;;;;24.08;12.18;;;;;;;;;;5114155;28;20034;-64
2024/02/09 12:48:29;;;;;;;31.35;14.18;;;;;;;;;;5114406;28;20059;-64
2024/02/09 12:50:55;;;;;;;30.65;14.32;;;;;;;;;;5114085;28;20024;-65
2024/02/09 12:53:22;;;;;;;23.88;12.48;;;;;;;;;;5095901;28;20120;-65
2024/02/09 12:55:47;;;;;;;24.42;11.85;;;;;;;;;;5114119;28;20023;-65
2024/02/09 12:58:13;;;;;;;16.83;8.30;;;;;;;;;;5114052;28;20024;-65
2024/02/09 13:00:39;;;;;;;16.00;8.93;;;;;;;;;;5114285;28;20028;-65
2024/02/09 13:03:05;;;;;;;18.20;9.05;;;;;;;;;;5114016;28;20473;-64
2024/02/09 13:05:30;;;;;;;17.27;9.18;;;;;;;;;;5113975;28;20063;-64
2024/02/09 13:08:00;;;;;;;27.77;11.07;;;;;;;;;;5114236;28;20039;-64
2024/02/09 13:10:26;;;;;;;24.07;10.03;;;;;;;;;;5114034;28;20032;-64
2024/02/09 13:12:51;;;;;;;22.67;11.20;;;;;;;;;;5113869;28;20028;-65
2024/02/09 13:15:17;;;;;;;17.65;8.85;;;;;;;;;;5112654;28;20114;-64
2024/02/09 13:17:42;;;;;;;17.60;8.93;;;;;;;;;;5113362;28;20043;-64
2024/02/09 13:20:08;;;;;;;14.48;7.28;;;;;;;;;;5113796;28;20043;-65
2024/02/09 13:22:37;;;;;;;16.00;7.75;;;;;;;;;;5113802;28;20038;-65
2024/02/09 13:25:03;;;;;;;17.35;8.18;;;;;;;;;;5111975;28;20377;-65
2024/02/09 13:27:29;;;;;;;14.50;7.20;;;;;;;;;;5111715;28;20024;-65
2024/02/09 13:29:55;;;;;;;12.05;6.45;;;;;;;;;;5099801;28;20130;-65
2024/02/09 13:32:20;;;;;;;13.95;6.40;;;;;;;;;;5132203;28;20116;-65
2024/02/09 13:34:46;;;;;;;18.92;7.47;;;;;;;;;;5132150;28;20415;-65
2024/02/09 13:37:11;;;;;;;11.27;6.63;;;;;;;;;;5133839;28;20467;-65
2024/02/09 13:39:36;;;;;;;18.13;7.93;;;;;;;;;;5134146;28;20365;-64
2024/02/09 13:42:03;;;;;;;15.38;7.75;;;;;;;;;;5134733;28;20035;-64
2024/02/09 13:44:29;;;;;;;15.48;7.20;;;;;;;;;;5137009;27;20031;-64
2024/02/09 13:46:54;;;;;;;16.27;8.00;;;;;;;;;;5137994;27;20019;-64
2024/02/09 13:49:20;;;;;;;13.85;7.40;;;;;;;;;;5138122;27;20031;-64
2024/02/09 13:51:46;;;;;;;12.48;5.85;;;;;;;;;;5137901;27;20051;-64
2024/02/09 13:54:12;;;;;;;12.75;5.68;;;;;;;;;;5137886;27;20027;-64
2024/02/09 13:56:38;;;;;;;14.43;5.65;;;;;;;;;;5137815;27;20460;-64
2024/02/09 13:59:04;;;;;;;11.20;6.15;;;;;;;;;;5137794;27;20553;-64
2024/02/09 14:01:29;;;;;;;12.85;6.68;;;;;;;;;;5138041;27;20117;-64
2024/02/09 14:03:55;;;;;;;17.95;7.47;;;;;;;;;;5137952;27;20084;-64
2024/02/09 14:06:20;;;;;;;13.20;7.07;;;;;;;;;;5137617;27;20038;-64
2024/02/09 14:08:45;;;;;;;15.85;7.50;;;;;;;;;;5137629;27;20031;-64
2024/02/09 14:11:14;;;;;;;15.25;7.68;;;;;;;;;;5137506;27;20453;-64
2024/02/09 14:13:40;;;;;;;13.35;7.85;;;;;;;;;;5137437;27;20039;-64
2024/02/09 14:16:06;;;;;;;15.70;7.95;;;;;;;;;;5137721;27;20032;-64
2024/02/09 14:18:33;;;;;;;44.97;15.10;;;;;;;;;;5137697;27;20035;-64
2024/02/09 14:20:59;;;;;;;86.03;29.60;;;;;;;;;;5137350;27;20045;-64
2024/02/09 14:23:27;;;;;;;71.90;26.55;;;;;;;;;;5119790;27;20516;-64
2024/02/09 14:25:58;;;;;;;48.25;20.58;;;;;;;;;;5137293;27;20023;-64
2024/02/09 14:28:24;;;;;;;28.48;12.25;;;;;;;;;;5137516;27;20066;-64
2024/02/09 14:30:49;;;;;;;27.60;12.98;;;;;;;;;;5122782;27;20067;-64
2024/02/09 14:33:15;;;;;;;19.02;10.38;;;;;;;;;;5116874;28;20493;-64
2024/02/09 14:35:40;;;;;;;24.08;10.60;;;;;;;;;;5098308;28;20066;-64
2024/02/09 14:38:05;;;;;;;24.33;11.80;;;;;;;;;;5116459;28;20389;-64
2024/02/09 14:40:31;;;;;;;24.27;11.90;;;;;;;;;;5116401;28;20062;-64
2024/02/09 14:42:57;;;;;;;30.08;13.15;;;;;;;;;;5116631;28;20038;-64
2024/02/09 14:45:22;;;;;;;37.17;17.17;;;;;;;;;;5116342;28;20029;-64
2024/02/09 14:47:48;;;;;;;52.83;24.80;;;;;;;;;;5116280;28;20388;-64
2024/02/09 14:50:13;;;;;;;60.75;29.35;;;;;;;;;;5116418;28;20042;-64
2024/02/09 14:52:42;;;;;;;60.88;30.08;;;;;;;;;;5116463;28;20023;-64
2024/02/09 14:55:10;;;;;;;56.00;27.35;;;;;;;;;;5116123;28;20027;-64
2024/02/09 14:57:35;;;;;;;45.50;24.15;;;;;;;;;;5098217;28;20024;-64
2024/02/09 15:00:01;;;;;;;49.38;23.45;;;;;;;;;;5116032;28;20495;-64
2024/02/09 15:02:26;;;;;;;43.50;22.25;;;;;;;;;;5116279;28;20046;-64
2024/02/09 15:04:52;;;;;;;39.08;21.13;;;;;;;;;;5103370;28;20051;-64
2024/02/09 15:07:21;;;;;;;31.25;17.42;;;;;;;;;;5095428;28;20334;-64
2024/02/09 15:09:46;;;;;;;35.67;19.58;;;;;;;;;;5095330;28;20036;-64
2024/02/09 15:12:15;;;;;;;36.38;19.65;;;;;;;;;;5095563;28;20028;-64
2024/02/09 15:14:41;;;;;;;38.80;19.67;;;;;;;;;;5095916;28;20032;-64
2024/02/09 15:17:06;;;;;;;34.95;19.45;;;;;;;;;;5095398;28;20039;-64
2024/02/09 15:19:32;;;;;;;33.03;18.45;;;;;;;;;;5095855;28;20043;-64
2024/02/09 15:21:58;;;;;;;27.67;15.95;;;;;;;;;;5095516;28;20069;-64
2024/02/09 15:24:23;;;;;;;29.50;15.43;;;;;;;;;;5095756;28;20358;-66
2024/02/09 15:26:49;;;;;;;26.90;15.60;;;;;;;;;;5095423;28;20102;-64
2024/02/09 15:29:14;;;;;;;21.83;14.02;;;;;;;;;;5096139;28;20111;-64
2024/02/09 15:31:40;;;;;;;23.73;14.52;;;;;;;;;;5115698;28;20443;-64
2024/02/09 15:34:06;;;;;;;22.73;13.75;;;;;;;;;;5115961;28;20031;-63
2024/02/09 15:36:32;;;;;;;22.42;15.45;;;;;;;;;;5115360;28;20028;-64
2024/02/09 15:38:58;;;;;;;20.48;13.45;;;;;;;;;;5115575;28;20026;-65
2024/02/09 15:41:24;;;;;;;27.52;15.68;;;;;;;;;;5115195;28;20463;-64
2024/02/09 15:43:52;;;;;;;26.42;15.63;;;;;;;;;;5115739;28;20415;-63
2024/02/09 15:46:19;;;;;;;29.73;18.60;;;;;;;;;;5115141;28;20043;-64
2024/02/09 15:48:46;;;;;;;28.88;18.90;;;;;;;;;;5115160;28;20037;-65
2024/02/09 15:51:38;;;;;;;37.05;22.55;;;;;;;;;;5114551;28;20039;-56
2024/02/09 15:54:04;;;;;;;33.15;21.48;;;;;;;;;;5111120;28;20041;-63
2024/02/09 15:56:34;;;;;;;28.70;19.42;;;;;;;;;;5126486;22;20067;-63
2024/02/09 15:59:01;;;;;;;30.35;19.17;;;;;;;;;;5103309;22;20060;-63
2024/02/09 16:01:33;;;;;;;34.80;22.52;;;;;;;;;;5092649;28;20028;-56
2024/02/09 16:03:59;;;;;;;33.22;23.10;;;;;;;;;;5092900;28;20040;-56
2024/02/09 16:06:25;;;;;;;45.03;28.15;;;;;;;;;;5092311;28;20056;-57
2024/02/09 16:08:51;;;;;;;46.20;30.30;;;;;;;;;;5092159;28;20473;-56
2024/02/09 16:11:18;;;;;;;46.50;28.35;;;;;;;;;;5092482;28;20072;-56